createdAt,value
2022-08-26T00:00:23.883Z,23.09
2022-08-26T00:01:24.365Z,23.04
2022-08-26T00:02:23.912Z,23.09
2022-08-26T00:03:23.838Z,23.06
2022-08-26T00:04:24.216Z,23.06
2022-08-26T00:05:23.820Z,23.06
2022-08-26T00:06:23.815Z,23.06
2022-08-26T00:07:23.829Z,23.04
2022-08-26T00:08:23.798Z,23.03
2022-08-26T00:09:23.792Z,23.01
2022-08-26T00:10:23.793Z,23.01
2022-08-26T00:11:26.757Z,22.99
2022-08-26T00:12:31.585Z,22.97
2022-08-26T00:13:23.740Z,22.99
2022-08-26T00:14:28.293Z,22.96
2022-08-26T00:15:23.726Z,22.94
2022-08-26T00:16:23.802Z,22.96
2022-08-26T00:17:23.694Z,22.94
2022-08-26T00:18:23.701Z,22.94
2022-08-26T00:19:23.817Z,22.93
2022-08-26T00:20:23.722Z,22.93
2022-08-26T00:21:23.654Z,22.96
2022-08-26T00:22:23.649Z,22.93
2022-08-26T00:23:24.267Z,22.93
2022-08-26T00:24:23.675Z,22.89
2022-08-26T00:25:23.609Z,22.89
2022-08-26T00:26:23.603Z,22.88
2022-08-26T00:27:23.595Z,22.88
2022-08-26T00:28:23.580Z,22.88
2022-08-26T00:29:23.583Z,22.85
2022-08-26T00:30:24.146Z,22.88
2022-08-26T00:31:23.566Z,22.85
2022-08-26T00:32:23.548Z,22.86
2022-08-26T00:33:23.536Z,22.86
2022-08-26T00:34:23.544Z,22.84
2022-08-26T00:35:23.523Z,22.82
2022-08-26T00:36:23.528Z,22.81
2022-08-26T00:37:23.491Z,22.79
2022-08-26T00:38:23.479Z,22.81
2022-08-26T00:39:23.488Z,22.79
2022-08-26T00:40:23.498Z,22.76
2022-08-26T00:41:23.457Z,22.75
2022-08-26T00:42:23.436Z,22.75
2022-08-26T00:43:23.439Z,22.70
2022-08-26T00:44:23.438Z,22.70
2022-08-26T00:45:23.429Z,22.69
2022-08-26T00:46:23.401Z,22.67
2022-08-26T00:47:23.386Z,22.67
2022-08-26T00:48:23.374Z,22.67
2022-08-26T00:49:23.379Z,22.66
2022-08-26T00:50:23.361Z,22.63
2022-08-26T00:51:23.338Z,22.61
2022-08-26T00:52:23.341Z,22.60
2022-08-26T00:53:24.114Z,22.56
2022-08-26T00:54:23.333Z,22.54
2022-08-26T00:55:23.298Z,22.51
2022-08-26T00:56:23.299Z,22.48
2022-08-26T00:57:23.283Z,22.46
2022-08-26T00:58:23.275Z,22.44
2022-08-26T00:59:23.280Z,22.39
2022-08-26T01:00:23.272Z,22.39
2022-08-26T01:01:23.395Z,22.41
2022-08-26T01:02:23.269Z,22.39
2022-08-26T01:03:23.211Z,22.39
2022-08-26T01:04:23.225Z,22.36
2022-08-26T01:05:23.207Z,22.38
2022-08-26T01:06:23.212Z,22.36
2022-08-26T01:07:23.182Z,22.36
2022-08-26T01:08:23.169Z,22.35
2022-08-26T01:09:23.202Z,22.35
2022-08-26T01:10:23.140Z,22.36
2022-08-26T01:11:23.147Z,22.35
2022-08-26T01:12:23.124Z,22.35
2022-08-26T01:13:23.132Z,22.36
2022-08-26T01:14:23.119Z,22.36
2022-08-26T01:15:23.103Z,22.36
2022-08-26T01:16:23.118Z,22.36
2022-08-26T01:17:23.084Z,22.38
2022-08-26T01:18:23.055Z,22.38
2022-08-26T01:19:23.100Z,22.39
2022-08-26T01:20:23.050Z,22.39
2022-08-26T01:21:23.036Z,22.39
2022-08-26T01:22:23.040Z,22.41
2022-08-26T01:23:23.045Z,22.42
2022-08-26T01:24:23.007Z,22.41
2022-08-26T01:25:22.986Z,22.44
2022-08-26T01:26:22.976Z,22.45
2022-08-26T01:27:22.969Z,22.45
2022-08-26T01:28:22.950Z,22.45
2022-08-26T01:29:22.985Z,22.44
2022-08-26T01:30:22.934Z,22.42
2022-08-26T01:31:22.959Z,22.44
2022-08-26T01:32:23.401Z,22.42
2022-08-26T01:33:22.912Z,22.42
2022-08-26T01:34:22.913Z,22.48
2022-08-26T01:35:22.890Z,22.48
2022-08-26T01:36:22.875Z,22.48
2022-08-26T01:37:22.863Z,22.51
2022-08-26T01:38:23.743Z,22.54
2022-08-26T01:39:22.863Z,22.56
2022-08-26T01:40:22.921Z,22.57
2022-08-26T01:41:27.395Z,22.59
2022-08-26T01:42:22.831Z,22.60
2022-08-26T01:43:22.805Z,22.60
2022-08-26T01:44:22.811Z,22.61
2022-08-26T01:45:22.787Z,22.63
2022-08-26T01:46:22.765Z,22.63
2022-08-26T01:47:22.775Z,22.64
2022-08-26T01:48:22.746Z,22.64
2022-08-26T01:49:22.759Z,22.66
2022-08-26T01:50:28.032Z,22.66
2022-08-26T01:51:22.729Z,22.67
2022-08-26T01:52:22.702Z,22.66
2022-08-26T01:53:22.701Z,22.67
2022-08-26T01:54:23.019Z,22.67
2022-08-26T01:55:33.287Z,22.67
2022-08-26T01:56:22.670Z,22.66
2022-08-26T01:57:22.655Z,22.66
2022-08-26T01:58:22.670Z,22.66
2022-08-26T01:59:22.652Z,22.66
2022-08-26T02:00:22.617Z,22.66
2022-08-26T02:01:22.671Z,22.63
2022-08-26T02:02:22.635Z,22.60
2022-08-26T02:03:22.604Z,22.60
2022-08-26T02:04:22.664Z,22.57
2022-08-26T02:05:22.608Z,22.57
2022-08-26T02:06:22.560Z,22.56
2022-08-26T02:07:22.564Z,22.52
2022-08-26T02:08:24.819Z,22.51
2022-08-26T02:09:22.554Z,22.48
2022-08-26T02:10:22.530Z,22.49
2022-08-26T02:11:22.512Z,22.48
2022-08-26T02:12:22.497Z,22.46
2022-08-26T02:13:22.554Z,22.48
2022-08-26T02:14:22.493Z,22.48
2022-08-26T02:15:22.473Z,22.45
2022-08-26T02:16:22.496Z,22.45
2022-08-26T02:17:22.443Z,22.42
2022-08-26T02:18:22.448Z,22.41
2022-08-26T02:19:22.447Z,22.39
2022-08-26T02:20:22.416Z,22.38
2022-08-26T02:21:22.414Z,22.38
2022-08-26T02:22:22.398Z,22.35
2022-08-26T02:23:24.390Z,22.35
2022-08-26T02:24:22.388Z,22.35
2022-08-26T02:25:22.385Z,22.35
2022-08-26T02:26:22.348Z,22.31
2022-08-26T02:27:22.338Z,22.30
2022-08-26T02:28:22.322Z,22.29
2022-08-26T02:29:22.342Z,22.30
2022-08-26T02:30:22.310Z,22.30
2022-08-26T02:31:22.393Z,22.29
2022-08-26T02:32:22.287Z,22.31
2022-08-26T02:33:22.278Z,22.30
2022-08-26T02:34:22.304Z,22.30
2022-08-26T02:35:22.271Z,22.31
2022-08-26T02:36:22.243Z,22.31
2022-08-26T02:37:23.049Z,22.30
2022-08-26T02:38:22.228Z,22.31
2022-08-26T02:39:22.542Z,22.31
2022-08-26T02:40:22.254Z,22.33
2022-08-26T02:41:23.036Z,22.33
2022-08-26T02:42:22.211Z,22.35
2022-08-26T02:43:31.188Z,22.35
2022-08-26T02:44:22.182Z,22.35
2022-08-26T02:45:23.321Z,22.35
2022-08-26T02:46:27.947Z,22.33
2022-08-26T02:47:24.793Z,22.30
2022-08-26T02:48:22.125Z,22.30
2022-08-26T02:49:22.175Z,22.29
2022-08-26T02:50:22.166Z,22.31
2022-08-26T02:51:22.157Z,22.31
2022-08-26T02:52:22.077Z,22.33
2022-08-26T02:53:25.330Z,22.31
2022-08-26T02:54:22.089Z,22.33
2022-08-26T02:55:22.045Z,22.33
2022-08-26T02:56:22.031Z,22.33
2022-08-26T02:57:22.244Z,22.30
2022-08-26T02:58:22.010Z,22.29
2022-08-26T02:59:24.357Z,22.29
2022-08-26T03:00:22.055Z,22.27
2022-08-26T03:01:22.073Z,22.24
2022-08-26T03:02:22.031Z,22.27
2022-08-26T03:03:23.441Z,22.29
2022-08-26T03:04:22.012Z,22.27
2022-08-26T03:05:21.967Z,22.30
2022-08-26T03:06:21.930Z,22.31
2022-08-26T03:07:21.926Z,22.30
2022-08-26T03:08:21.915Z,22.31
2022-08-26T03:09:21.919Z,22.30
2022-08-26T03:10:21.895Z,22.30
2022-08-26T03:11:21.892Z,22.30
2022-08-26T03:12:21.871Z,22.30
2022-08-26T03:13:21.875Z,22.29
2022-08-26T03:14:21.872Z,22.27
2022-08-26T03:15:21.861Z,22.29
2022-08-26T03:16:21.912Z,22.29
2022-08-26T03:17:21.846Z,22.29
2022-08-26T03:18:21.810Z,22.29
2022-08-26T03:19:21.821Z,22.29
2022-08-26T03:20:21.797Z,22.27
2022-08-26T03:21:21.772Z,22.26
2022-08-26T03:22:21.765Z,22.29
2022-08-26T03:23:21.761Z,22.27
2022-08-26T03:24:21.765Z,22.27
2022-08-26T03:25:21.777Z,22.24
2022-08-26T03:26:21.722Z,22.24
2022-08-26T03:27:21.719Z,22.24
2022-08-26T03:28:21.706Z,22.24
2022-08-26T03:29:21.715Z,22.23
2022-08-26T03:30:21.704Z,22.23
2022-08-26T03:31:21.710Z,22.23
2022-08-26T03:32:21.694Z,22.23
2022-08-26T03:33:21.670Z,22.23
2022-08-26T03:34:21.660Z,22.24
2022-08-26T03:35:22.486Z,22.23
2022-08-26T03:36:21.633Z,22.24
2022-08-26T03:37:21.751Z,22.26
2022-08-26T03:38:21.591Z,22.24
2022-08-26T03:39:21.681Z,22.24
2022-08-26T03:40:21.643Z,22.21
2022-08-26T03:41:21.585Z,22.21
2022-08-26T03:42:21.663Z,22.21
2022-08-26T03:43:21.546Z,22.21
2022-08-26T03:44:21.554Z,22.23
2022-08-26T03:45:21.533Z,22.20
2022-08-26T03:46:21.561Z,22.23
2022-08-26T03:47:21.448Z,22.21
2022-08-26T03:48:21.438Z,22.17
2022-08-26T03:49:21.446Z,22.14
2022-08-26T03:50:22.856Z,22.15
2022-08-26T03:51:21.426Z,22.14
2022-08-26T03:52:21.403Z,22.15
2022-08-26T03:53:21.389Z,22.14
2022-08-26T03:54:21.378Z,22.17
2022-08-26T03:55:21.386Z,22.17
2022-08-26T03:56:21.381Z,22.17
2022-08-26T03:57:21.359Z,22.15
2022-08-26T03:58:21.337Z,22.19
2022-08-26T03:59:21.335Z,22.19
2022-08-26T04:00:21.332Z,22.19
2022-08-26T04:01:21.405Z,22.17
2022-08-26T04:02:21.294Z,22.19
2022-08-26T04:03:21.335Z,22.17
2022-08-26T04:04:22.787Z,22.19
2022-08-26T04:05:21.263Z,22.19
2022-08-26T04:06:21.246Z,22.17
2022-08-26T04:07:21.237Z,22.19
2022-08-26T04:08:21.245Z,22.19
2022-08-26T04:09:21.273Z,22.15
2022-08-26T04:10:21.203Z,22.12
2022-08-26T04:11:21.207Z,22.12
2022-08-26T04:12:21.201Z,22.09
2022-08-26T04:13:21.195Z,22.08
2022-08-26T04:14:21.187Z,22.06
2022-08-26T04:15:21.160Z,22.04
2022-08-26T04:16:21.194Z,22.05
2022-08-26T04:17:24.926Z,22.06
2022-08-26T04:18:21.125Z,22.08
2022-08-26T04:19:21.149Z,22.05
2022-08-26T04:20:21.109Z,22.06
2022-08-26T04:21:21.099Z,22.08
2022-08-26T04:22:24.978Z,22.06
2022-08-26T04:23:21.072Z,22.06
2022-08-26T04:24:21.074Z,22.01
2022-08-26T04:25:21.059Z,21.99
2022-08-26T04:26:21.049Z,21.96
2022-08-26T04:27:21.094Z,21.93
2022-08-26T04:28:21.019Z,21.94
2022-08-26T04:29:21.027Z,21.94
2022-08-26T04:30:20.998Z,21.94
2022-08-26T04:31:21.070Z,21.94
2022-08-26T04:32:21.012Z,21.96
2022-08-26T04:33:32.331Z,21.94
2022-08-26T04:34:20.976Z,21.96
2022-08-26T04:35:25.438Z,21.96
2022-08-26T04:36:20.966Z,21.98
2022-08-26T04:37:20.925Z,21.99
2022-08-26T04:38:20.912Z,21.94
2022-08-26T04:39:20.928Z,21.93
2022-08-26T04:40:20.961Z,21.90
2022-08-26T04:41:20.882Z,21.90
2022-08-26T04:42:26.019Z,21.90
2022-08-26T04:43:20.867Z,21.90
2022-08-26T04:44:20.871Z,21.90
2022-08-26T04:45:22.938Z,21.90
2022-08-26T04:46:20.885Z,21.93
2022-08-26T04:47:20.824Z,21.93
2022-08-26T04:48:20.822Z,21.91
2022-08-26T04:49:20.826Z,21.94
2022-08-26T04:50:20.784Z,21.96
2022-08-26T04:51:20.780Z,21.99
2022-08-26T04:52:20.777Z,21.99
2022-08-26T04:53:20.764Z,22.04
2022-08-26T04:54:20.751Z,22.05
2022-08-26T04:55:20.816Z,22.08
2022-08-26T04:56:20.768Z,22.11
2022-08-26T04:57:20.714Z,22.15
2022-08-26T04:58:20.789Z,22.19
2022-08-26T04:59:20.716Z,22.19
2022-08-26T05:00:20.690Z,22.24
2022-08-26T05:01:20.761Z,22.24
2022-08-26T05:02:20.662Z,22.27
2022-08-26T05:03:20.658Z,22.27
2022-08-26T05:04:20.697Z,22.26
2022-08-26T05:05:20.675Z,22.27
2022-08-26T05:06:20.621Z,22.30
2022-08-26T05:07:20.624Z,22.29
2022-08-26T05:08:20.610Z,22.29
2022-08-26T05:09:20.642Z,22.29
2022-08-26T05:10:20.574Z,22.27
2022-08-26T05:11:20.568Z,22.30
2022-08-26T05:12:20.560Z,22.35
2022-08-26T05:13:20.702Z,22.38
2022-08-26T05:14:20.708Z,22.42
2022-08-26T05:15:20.531Z,22.44
2022-08-26T05:16:20.597Z,22.48
2022-08-26T05:17:20.510Z,22.49
2022-08-26T05:18:20.566Z,22.49
2022-08-26T05:19:21.201Z,22.51
2022-08-26T05:20:25.161Z,22.52
2022-08-26T05:21:20.577Z,22.52
2022-08-26T05:22:20.515Z,22.56
2022-08-26T05:23:20.492Z,22.56
2022-08-26T05:24:20.557Z,22.56
2022-08-26T05:25:20.482Z,22.59
2022-08-26T05:26:22.969Z,22.61
2022-08-26T05:27:20.447Z,22.63
2022-08-26T05:28:20.479Z,22.66
2022-08-26T05:29:20.456Z,22.66
2022-08-26T05:30:20.420Z,22.69
2022-08-26T05:31:20.469Z,22.67
2022-08-26T05:32:20.396Z,22.70
2022-08-26T05:33:20.392Z,22.70
2022-08-26T05:34:20.423Z,22.72
2022-08-26T05:35:20.369Z,22.78
2022-08-26T05:36:20.345Z,22.76
2022-08-26T05:37:20.370Z,22.75
2022-08-26T05:38:20.352Z,22.76
2022-08-26T05:39:20.342Z,22.79
2022-08-26T05:40:20.328Z,22.82
2022-08-26T05:41:20.299Z,22.85
2022-08-26T05:42:20.321Z,22.85
2022-08-26T05:43:20.326Z,22.88
2022-08-26T05:44:20.252Z,22.89
2022-08-26T05:45:20.270Z,22.91
2022-08-26T05:46:20.273Z,22.93
2022-08-26T05:47:20.247Z,22.93
2022-08-26T05:48:22.698Z,22.97
2022-08-26T05:49:20.216Z,22.96
2022-08-26T05:50:20.352Z,22.96
2022-08-26T05:51:24.035Z,22.93
2022-08-26T05:52:20.319Z,22.93
2022-08-26T05:53:20.143Z,22.93
2022-08-26T05:54:22.315Z,22.94
2022-08-26T05:55:20.102Z,22.96
2022-08-26T05:56:20.100Z,22.96
2022-08-26T05:57:20.095Z,22.99
2022-08-26T05:58:20.120Z,23.00
2022-08-26T05:59:24.130Z,23.03
2022-08-26T06:00:20.070Z,23.06
2022-08-26T06:01:21.481Z,23.11
2022-08-26T06:02:20.123Z,23.12
2022-08-26T06:03:20.064Z,23.16
2022-08-26T06:04:20.118Z,23.15
2022-08-26T06:05:20.036Z,23.15
2022-08-26T06:06:20.773Z,23.19
2022-08-26T06:07:20.045Z,23.21
2022-08-26T06:08:20.162Z,23.23
2022-08-26T06:09:19.985Z,23.26
2022-08-26T06:10:31.994Z,23.29
2022-08-26T06:11:20.017Z,23.31
2022-08-26T06:12:19.960Z,23.34
2022-08-26T06:13:19.928Z,23.38
2022-08-26T06:14:20.019Z,23.38
2022-08-26T06:15:20.032Z,23.41
2022-08-26T06:16:20.035Z,23.42
2022-08-26T06:17:19.951Z,23.44
2022-08-26T06:18:19.902Z,23.47
2022-08-26T06:19:19.944Z,23.49
2022-08-26T06:20:19.871Z,23.47
2022-08-26T06:21:19.851Z,23.45
2022-08-26T06:22:23.496Z,23.41
2022-08-26T06:23:19.863Z,23.42
2022-08-26T06:24:20.047Z,23.39
2022-08-26T06:25:19.832Z,23.38
2022-08-26T06:26:19.797Z,23.37
2022-08-26T06:27:19.773Z,23.32
2022-08-26T06:28:19.768Z,23.32
2022-08-26T06:29:24.064Z,23.37
2022-08-26T06:30:19.753Z,23.39
2022-08-26T06:31:19.787Z,23.44
2022-08-26T06:32:19.739Z,23.47
2022-08-26T06:33:19.757Z,23.50
2022-08-26T06:34:20.062Z,23.54
2022-08-26T06:35:19.703Z,23.57
2022-08-26T06:36:19.740Z,23.60
2022-08-26T06:37:19.672Z,23.57
2022-08-26T06:38:19.701Z,23.62
2022-08-26T06:39:19.689Z,23.64
2022-08-26T06:40:19.679Z,23.68
2022-08-26T06:41:19.628Z,23.72
2022-08-26T06:42:19.639Z,23.77
2022-08-26T06:43:19.608Z,23.81
2022-08-26T06:44:19.620Z,23.84
2022-08-26T06:45:19.583Z,23.87
2022-08-26T06:46:19.633Z,23.90
2022-08-26T06:47:19.568Z,23.93
2022-08-26T06:48:19.556Z,23.97
2022-08-26T06:49:26.641Z,24.00
2022-08-26T06:50:19.567Z,24.06
2022-08-26T06:51:19.524Z,24.11
2022-08-26T06:52:24.285Z,24.12
2022-08-26T06:53:19.510Z,24.12
2022-08-26T06:54:19.516Z,24.12
2022-08-26T06:55:19.480Z,24.11
2022-08-26T06:56:19.512Z,24.14
2022-08-26T06:57:19.462Z,24.15
2022-08-26T06:58:19.469Z,24.19
2022-08-26T06:59:19.455Z,24.23
2022-08-26T07:00:19.430Z,24.24
2022-08-26T07:01:19.714Z,24.30
2022-08-26T07:02:19.550Z,24.33
2022-08-26T07:03:19.414Z,24.37
2022-08-26T07:04:20.217Z,24.42
2022-08-26T07:05:19.385Z,24.46
2022-08-26T07:06:19.389Z,24.49
2022-08-26T07:07:22.045Z,24.49
2022-08-26T07:08:19.353Z,24.53
2022-08-26T07:09:19.404Z,24.61
2022-08-26T07:10:19.330Z,24.66
2022-08-26T07:11:19.335Z,24.74
2022-08-26T07:12:19.310Z,24.79
2022-08-26T07:13:30.615Z,24.83
2022-08-26T07:14:21.434Z,24.84
2022-08-26T07:15:19.281Z,24.92
2022-08-26T07:16:19.342Z,24.98
2022-08-26T07:17:19.255Z,25.04
2022-08-26T07:18:19.246Z,25.11
2022-08-26T07:19:30.014Z,25.12
2022-08-26T07:20:19.233Z,25.22
2022-08-26T07:21:19.207Z,25.27
2022-08-26T07:22:19.214Z,25.29
2022-08-26T07:23:19.188Z,25.39
2022-08-26T07:24:19.206Z,25.48
2022-08-26T07:25:19.463Z,25.54
2022-08-26T07:26:19.171Z,25.67
2022-08-26T07:27:19.146Z,25.82
2022-08-26T07:28:19.153Z,26.08
2022-08-26T07:29:19.140Z,26.35
2022-08-26T07:30:19.138Z,26.71
2022-08-26T07:31:19.158Z,27.12
2022-08-26T07:32:19.111Z,27.50
2022-08-26T07:33:19.120Z,27.95
2022-08-26T07:34:19.097Z,28.32
2022-08-26T07:35:19.093Z,28.58
2022-08-26T07:36:19.055Z,28.77
2022-08-26T07:37:19.111Z,28.82
2022-08-26T07:38:19.040Z,28.98
2022-08-26T07:39:19.143Z,29.10
2022-08-26T07:40:19.113Z,29.12
2022-08-26T07:41:19.054Z,29.36
2022-08-26T07:42:19.008Z,29.44
2022-08-26T07:43:18.985Z,29.62
2022-08-26T07:44:19.000Z,29.85
2022-08-26T07:45:18.964Z,29.86
2022-08-26T07:46:20.752Z,30.07
2022-08-26T07:47:24.735Z,30.16
2022-08-26T07:48:18.948Z,30.34
2022-08-26T07:49:18.973Z,30.40
2022-08-26T07:50:18.946Z,30.42
2022-08-26T07:51:18.898Z,30.63
2022-08-26T07:52:20.713Z,30.75
2022-08-26T07:53:19.442Z,30.85
2022-08-26T07:54:18.924Z,30.94
2022-08-26T07:55:18.899Z,31.10
2022-08-26T07:56:18.856Z,31.20
2022-08-26T07:57:19.195Z,31.35
2022-08-26T07:58:18.858Z,31.35
2022-08-26T07:59:18.879Z,31.34
2022-08-26T08:00:18.823Z,31.50
2022-08-26T08:01:18.885Z,31.67
2022-08-26T08:02:18.807Z,31.82
2022-08-26T08:03:18.777Z,31.88
2022-08-26T08:04:21.884Z,31.90
2022-08-26T08:05:18.888Z,31.75
2022-08-26T08:06:18.757Z,31.40
2022-08-26T08:07:18.740Z,31.01
2022-08-26T08:08:27.984Z,30.45
2022-08-26T08:09:18.809Z,30.19
2022-08-26T08:10:18.813Z,29.74
2022-08-26T08:11:18.700Z,29.48
2022-08-26T08:12:18.693Z,29.33
2022-08-26T08:13:18.732Z,29.14
2022-08-26T08:14:18.721Z,28.88
2022-08-26T08:15:18.656Z,28.70
2022-08-26T08:16:18.662Z,28.52
2022-08-26T08:17:18.669Z,28.35
2022-08-26T08:18:20.493Z,28.23
2022-08-26T08:19:18.651Z,28.09
2022-08-26T08:20:18.658Z,28.01
2022-08-26T08:21:21.974Z,27.91
2022-08-26T08:22:19.837Z,27.86
2022-08-26T08:23:18.590Z,27.86
2022-08-26T08:24:18.632Z,27.69
2022-08-26T08:25:18.554Z,27.68
2022-08-26T08:26:18.557Z,27.65
2022-08-26T08:27:23.550Z,27.63
2022-08-26T08:28:18.534Z,27.65
2022-08-26T08:29:18.572Z,27.65
2022-08-26T08:30:20.921Z,27.65
2022-08-26T08:31:21.622Z,27.63
2022-08-26T08:32:18.512Z,27.62
2022-08-26T08:33:18.478Z,27.61
2022-08-26T08:34:18.485Z,27.58
2022-08-26T08:35:18.452Z,27.58
2022-08-26T08:36:20.454Z,27.58
2022-08-26T08:37:18.435Z,27.61
2022-08-26T08:38:18.445Z,27.55
2022-08-26T08:39:18.531Z,27.63
2022-08-26T08:40:18.713Z,27.72
2022-08-26T08:41:18.521Z,27.76
2022-08-26T08:42:18.400Z,27.80
2022-08-26T08:43:18.432Z,27.84
2022-08-26T08:44:18.467Z,27.91
2022-08-26T08:45:18.464Z,27.93
2022-08-26T08:46:18.407Z,27.83
2022-08-26T08:47:18.328Z,27.78
2022-08-26T08:48:18.336Z,27.80
2022-08-26T08:49:18.317Z,27.91
2022-08-26T08:50:18.383Z,27.96
2022-08-26T08:51:18.286Z,28.03
2022-08-26T08:52:18.281Z,28.05
2022-08-26T08:53:18.269Z,27.95
2022-08-26T08:54:18.277Z,27.93
2022-08-26T08:55:18.726Z,27.88
2022-08-26T08:56:18.249Z,27.81
2022-08-26T08:57:18.256Z,27.76
2022-08-26T08:58:19.177Z,27.68
2022-08-26T08:59:18.234Z,27.61
2022-08-26T09:00:18.257Z,27.53
2022-08-26T09:01:18.218Z,27.43
2022-08-26T09:02:18.202Z,27.42
2022-08-26T09:03:18.190Z,27.40
2022-08-26T09:04:18.178Z,27.38
2022-08-26T09:05:18.165Z,27.35
2022-08-26T09:06:18.148Z,27.40
2022-08-26T09:07:18.138Z,27.43
2022-08-26T09:08:19.905Z,27.38
2022-08-26T09:09:18.136Z,27.38
2022-08-26T09:10:18.217Z,27.40
2022-08-26T09:11:18.079Z,27.45
2022-08-26T09:12:18.079Z,27.43
2022-08-26T09:13:25.332Z,27.45
2022-08-26T09:14:18.064Z,27.43
2022-08-26T09:15:18.043Z,27.42
2022-08-26T09:16:19.150Z,27.40
2022-08-26T09:17:18.018Z,27.40
2022-08-26T09:18:18.035Z,27.40
2022-08-26T09:19:18.948Z,27.50
2022-08-26T09:20:18.034Z,27.68
2022-08-26T09:21:18.027Z,27.69
2022-08-26T09:22:18.006Z,27.72
2022-08-26T09:23:18.211Z,27.72
2022-08-26T09:24:18.167Z,27.72
2022-08-26T09:25:18.066Z,27.69
2022-08-26T09:26:17.934Z,27.65
2022-08-26T09:27:17.930Z,27.65
2022-08-26T09:28:17.934Z,27.68
2022-08-26T09:29:17.974Z,27.63
2022-08-26T09:30:17.891Z,27.50
2022-08-26T09:31:17.917Z,27.43
2022-08-26T09:32:17.864Z,27.38
2022-08-26T09:33:17.871Z,27.31
2022-08-26T09:34:17.981Z,27.28
2022-08-26T09:35:17.835Z,27.27
2022-08-26T09:36:17.832Z,27.28
2022-08-26T09:37:17.819Z,27.28
2022-08-26T09:38:17.815Z,27.31
2022-08-26T09:39:17.793Z,27.33
2022-08-26T09:40:17.948Z,27.35
2022-08-26T09:41:17.782Z,27.42
2022-08-26T09:42:17.769Z,27.42
2022-08-26T09:43:24.528Z,27.40
2022-08-26T09:44:17.733Z,27.42
2022-08-26T09:45:20.904Z,27.45
2022-08-26T09:46:17.863Z,27.45
2022-08-26T09:47:17.710Z,27.45
2022-08-26T09:48:17.752Z,27.45
2022-08-26T09:49:17.689Z,27.45
2022-08-26T09:50:17.681Z,27.48
2022-08-26T09:51:17.691Z,27.43
2022-08-26T09:52:17.665Z,27.39
2022-08-26T09:53:17.668Z,27.39
2022-08-26T09:54:20.637Z,27.35
2022-08-26T09:55:17.625Z,27.33
2022-08-26T09:56:17.614Z,27.31
2022-08-26T09:57:17.607Z,27.33
2022-08-26T09:58:17.611Z,27.30
2022-08-26T09:59:18.860Z,27.31
2022-08-26T10:00:17.570Z,27.28
2022-08-26T10:01:17.655Z,27.28
2022-08-26T10:02:17.554Z,27.25
2022-08-26T10:03:17.557Z,27.25
2022-08-26T10:04:17.605Z,27.25
2022-08-26T10:05:17.530Z,27.27
2022-08-26T10:06:17.505Z,27.30
2022-08-26T10:07:17.507Z,27.35
2022-08-26T10:08:17.502Z,27.40
2022-08-26T10:09:17.485Z,27.45
2022-08-26T10:10:17.467Z,27.50
2022-08-26T10:11:17.463Z,27.53
2022-08-26T10:12:17.451Z,27.53
2022-08-26T10:13:17.451Z,27.55
2022-08-26T10:14:17.424Z,27.55
2022-08-26T10:15:17.422Z,27.53
2022-08-26T10:16:17.470Z,27.50
2022-08-26T10:17:17.398Z,27.43
2022-08-26T10:18:17.404Z,27.39
2022-08-26T10:19:17.392Z,27.35
2022-08-26T10:20:23.358Z,27.34
2022-08-26T10:21:17.835Z,27.34
2022-08-26T10:22:17.338Z,27.42
2022-08-26T10:23:17.375Z,27.48
2022-08-26T10:24:17.335Z,27.52
2022-08-26T10:25:17.329Z,27.50
2022-08-26T10:26:17.303Z,27.50
2022-08-26T10:27:17.312Z,27.49
2022-08-26T10:28:17.284Z,27.48
2022-08-26T10:29:17.280Z,27.45
2022-08-26T10:30:17.271Z,27.40
2022-08-26T10:31:17.263Z,27.40
2022-08-26T10:32:17.279Z,27.38
2022-08-26T10:33:18.103Z,27.39
2022-08-26T10:34:17.220Z,27.39
2022-08-26T10:35:17.217Z,27.38
2022-08-26T10:36:17.213Z,27.46
2022-08-26T10:37:17.212Z,27.58
2022-08-26T10:38:17.185Z,27.62
2022-08-26T10:39:17.197Z,27.65
2022-08-26T10:40:17.225Z,27.78
2022-08-26T10:41:18.051Z,27.95
2022-08-26T10:42:17.163Z,27.95
2022-08-26T10:43:17.129Z,27.86
2022-08-26T10:44:17.117Z,27.81
2022-08-26T10:45:17.121Z,27.77
2022-08-26T10:46:17.263Z,27.80
2022-08-26T10:47:17.109Z,27.87
2022-08-26T10:48:17.078Z,27.86
2022-08-26T10:49:17.067Z,27.88
2022-08-26T10:50:17.976Z,27.87
2022-08-26T10:51:17.049Z,27.81
2022-08-26T10:52:17.053Z,27.74
2022-08-26T10:53:17.038Z,27.69
2022-08-26T10:54:17.036Z,27.66
2022-08-26T10:55:17.003Z,27.65
2022-08-26T10:56:19.176Z,27.68
2022-08-26T10:57:17.006Z,27.69
2022-08-26T10:58:26.739Z,27.69
2022-08-26T10:59:16.972Z,27.66
2022-08-26T11:00:16.945Z,27.71
2022-08-26T11:01:17.018Z,27.63
2022-08-26T11:02:19.452Z,27.53
2022-08-26T11:03:21.733Z,27.42
2022-08-26T11:04:16.967Z,27.35
2022-08-26T11:05:16.903Z,27.27
2022-08-26T11:06:16.895Z,27.23
2022-08-26T11:07:16.894Z,27.16
2022-08-26T11:08:16.869Z,27.15
2022-08-26T11:09:16.862Z,27.18
2022-08-26T11:10:16.872Z,27.30
2022-08-26T11:11:16.847Z,27.38
2022-08-26T11:12:16.855Z,27.45
2022-08-26T11:13:16.819Z,27.49
2022-08-26T11:14:16.809Z,27.53
2022-08-26T11:15:16.800Z,27.58
2022-08-26T11:16:16.794Z,27.59
2022-08-26T11:17:16.799Z,27.62
2022-08-26T11:18:16.767Z,27.61
2022-08-26T11:19:16.754Z,27.58
2022-08-26T11:20:16.837Z,27.55
2022-08-26T11:21:16.737Z,27.52
2022-08-26T11:22:16.753Z,27.49
2022-08-26T11:23:16.719Z,27.48
2022-08-26T11:24:16.700Z,27.45
2022-08-26T11:25:18.282Z,27.42
2022-08-26T11:26:35.915Z,27.39
2022-08-26T11:27:16.722Z,27.33
2022-08-26T11:28:16.661Z,27.27
2022-08-26T11:29:16.653Z,27.28
2022-08-26T11:30:18.400Z,27.28
2022-08-26T11:31:16.678Z,27.28
2022-08-26T11:32:16.629Z,27.28
2022-08-26T11:33:16.611Z,27.30
2022-08-26T11:34:16.597Z,27.30
2022-08-26T11:35:16.601Z,27.25
2022-08-26T11:36:16.581Z,27.25
2022-08-26T11:37:16.622Z,27.23
2022-08-26T11:38:16.559Z,27.16
2022-08-26T11:39:16.547Z,27.11
2022-08-26T11:40:16.557Z,27.09
2022-08-26T11:41:16.532Z,27.03
2022-08-26T11:42:16.534Z,27.01
2022-08-26T11:43:16.506Z,26.96
2022-08-26T11:44:16.493Z,26.96
2022-08-26T11:45:16.484Z,26.91
2022-08-26T11:46:16.500Z,26.93
2022-08-26T11:47:16.484Z,26.88
2022-08-26T11:48:16.446Z,26.87
2022-08-26T11:49:16.450Z,26.84
2022-08-26T11:50:16.428Z,26.81
2022-08-26T11:51:16.425Z,26.79
2022-08-26T11:52:16.436Z,26.81
2022-08-26T11:53:16.405Z,26.78
2022-08-26T11:54:16.400Z,26.76
2022-08-26T11:55:16.385Z,26.76
2022-08-26T11:56:16.364Z,26.76
2022-08-26T11:57:16.393Z,26.75
2022-08-26T11:58:16.350Z,26.75
2022-08-26T11:59:16.366Z,26.75
2022-08-26T12:00:20.508Z,26.79
2022-08-26T12:01:16.331Z,26.87
2022-08-26T12:02:16.322Z,26.86
2022-08-26T12:03:16.357Z,26.81
2022-08-26T12:04:16.411Z,26.69
2022-08-26T12:05:16.282Z,26.64
2022-08-26T12:06:16.294Z,26.54
2022-08-26T12:07:16.273Z,26.49
2022-08-26T12:08:16.238Z,26.29
2022-08-26T12:09:16.236Z,26.06
2022-08-26T12:10:16.220Z,25.76
2022-08-26T12:11:16.223Z,25.60
2022-08-26T12:12:16.229Z,25.51
2022-08-26T12:13:16.194Z,25.45
2022-08-26T12:14:16.180Z,25.38
2022-08-26T12:15:16.179Z,25.35
2022-08-26T12:16:16.218Z,25.27
2022-08-26T12:17:16.164Z,25.22
2022-08-26T12:18:16.140Z,25.17
2022-08-26T12:19:16.129Z,25.12
2022-08-26T12:20:16.115Z,25.05
2022-08-26T12:21:16.191Z,24.98
2022-08-26T12:22:16.113Z,24.90
2022-08-26T12:23:16.092Z,24.82
2022-08-26T12:24:16.075Z,24.75
2022-08-26T12:25:16.063Z,24.67
2022-08-26T12:26:16.051Z,24.60
2022-08-26T12:27:16.065Z,24.53
2022-08-26T12:28:16.039Z,24.48
2022-08-26T12:29:26.637Z,24.45
2022-08-26T12:30:18.008Z,24.42
2022-08-26T12:31:16.051Z,24.37
2022-08-26T12:32:16.009Z,24.34
2022-08-26T12:33:22.752Z,24.34
2022-08-26T12:34:18.019Z,24.29
2022-08-26T12:35:15.963Z,24.26
2022-08-26T12:36:15.948Z,24.21
2022-08-26T12:37:15.958Z,24.15
2022-08-26T12:38:15.933Z,24.11
2022-08-26T12:39:15.928Z,24.08
2022-08-26T12:40:16.045Z,24.05
2022-08-26T12:41:15.899Z,24.02
2022-08-26T12:42:15.918Z,24.00
2022-08-26T12:43:15.882Z,23.94
2022-08-26T12:44:15.871Z,23.89
2022-08-26T12:45:15.865Z,23.82
2022-08-26T12:46:15.847Z,23.75
2022-08-26T12:47:15.861Z,23.67
2022-08-26T12:48:15.853Z,23.52
2022-08-26T12:49:15.842Z,23.34
2022-08-26T12:50:15.809Z,23.15
2022-08-26T12:51:15.796Z,22.97
2022-08-26T12:52:15.788Z,22.84